sensor_id;sensor_type;location;lat;lon;timestamp;pressure;altitude;pressure_sealevel;temperature;humidity
7768;BME280;3928;42.626;23.382;2023-06-04T00:00:16;94316.81;;;20.40;92.82
7768;BME280;3928;42.626;23.382;2023-06-04T00:02:43;94323.47;;;20.46;92.92
7768;BME280;3928;42.626;23.382;2023-06-04T00:05:10;94325.16;;;20.47;92.96
7768;BME280;3928;42.626;23.382;2023-06-04T00:07:37;94323.25;;;20.51;92.65
7768;BME280;3928;42.626;23.382;2023-06-04T00:10:04;94322.03;;;20.56;92.75
7768;BME280;3928;42.626;23.382;2023-06-04T00:12:31;94314.31;;;20.55;92.18
7768;BME280;3928;42.626;23.382;2023-06-04T00:14:59;94328.84;;;20.59;92.25
7768;BME280;3928;42.626;23.382;2023-06-04T00:17:26;94320.97;;;20.60;92.07
7768;BME280;3928;42.626;23.382;2023-06-04T00:19:53;94315.81;;;20.59;92.04
7768;BME280;3928;42.626;23.382;2023-06-04T00:22:20;94315.16;;;20.55;91.95
7768;BME280;3928;42.626;23.382;2023-06-04T00:24:47;94320.38;;;20.55;91.77
7768;BME280;3928;42.626;23.382;2023-06-04T00:27:13;94317.41;;;20.46;91.75
7768;BME280;3928;42.626;23.382;2023-06-04T00:29:40;94313.78;;;20.48;91.81
7768;BME280;3928;42.626;23.382;2023-06-04T00:32:09;94324.63;;;20.40;91.98
7768;BME280;3928;42.626;23.382;2023-06-04T00:34:35;94319.41;;;20.40;92.19
7768;BME280;3928;42.626;23.382;2023-06-04T00:37:02;94321.50;;;20.34;92.36
7768;BME280;3928;42.626;23.382;2023-06-04T00:39:29;94317.97;;;20.35;92.41
7768;BME280;3928;42.626;23.382;2023-06-04T00:41:56;94315.44;;;20.33;92.65
7768;BME280;3928;42.626;23.382;2023-06-04T00:44:23;94317.47;;;20.28;92.59
7768;BME280;3928;42.626;23.382;2023-06-04T00:46:51;94311.06;;;20.34;92.75
7768;BME280;3928;42.626;23.382;2023-06-04T00:49:20;94313.59;;;20.35;92.67
7768;BME280;3928;42.626;23.382;2023-06-04T00:51:47;94316.06;;;20.38;92.13
7768;BME280;3928;42.626;23.382;2023-06-04T00:54:15;94310.84;;;20.38;92.00
7768;BME280;3928;42.626;23.382;2023-06-04T00:56:43;94299.31;;;20.27;92.25
7768;BME280;3928;42.626;23.382;2023-06-04T00:59:10;94314.53;;;20.34;92.65
7768;BME280;3928;42.626;23.382;2023-06-04T01:01:40;94311.44;;;20.28;93.14
7768;BME280;3928;42.626;23.382;2023-06-04T01:04:14;94308.91;;;20.26;93.99
7768;BME280;3928;42.626;23.382;2023-06-04T01:06:46;94293.84;;;20.15;93.84
7768;BME280;3928;42.626;23.382;2023-06-04T01:09:15;94307.22;;;20.25;93.89
7768;BME280;3928;42.626;23.382;2023-06-04T01:11:42;94317.31;;;20.31;94.14
7768;BME280;3928;42.626;23.382;2023-06-04T01:14:09;94336.31;;;20.33;93.49
7768;BME280;3928;42.626;23.382;2023-06-04T01:16:39;94317.13;;;20.34;93.69
7768;BME280;3928;42.626;23.382;2023-06-04T01:19:22;94309.41;;;20.33;93.83
7768;BME280;3928;42.626;23.382;2023-06-04T01:22:02;94311.00;;;20.35;93.66
7768;BME280;3928;42.626;23.382;2023-06-04T01:24:34;94310.22;;;20.33;94.04
7768;BME280;3928;42.626;23.382;2023-06-04T01:27:02;94310.09;;;20.36;94.46
7768;BME280;3928;42.626;23.382;2023-06-04T01:29:29;94314.69;;;20.31;94.73
7768;BME280;3928;42.626;23.382;2023-06-04T01:31:58;94314.78;;;20.30;95.03
7768;BME280;3928;42.626;23.382;2023-06-04T01:34:25;94324.19;;;20.32;95.25
7768;BME280;3928;42.626;23.382;2023-06-04T01:36:52;94332.84;;;20.33;95.29
7768;BME280;3928;42.626;23.382;2023-06-04T01:39:20;94333.13;;;20.28;96.00
7768;BME280;3928;42.626;23.382;2023-06-04T01:41:47;94321.84;;;20.28;96.19
7768;BME280;3928;42.626;23.382;2023-06-04T01:44:14;94335.81;;;20.27;95.74
7768;BME280;3928;42.626;23.382;2023-06-04T01:46:40;94329.59;;;20.29;95.88
7768;BME280;3928;42.626;23.382;2023-06-04T01:49:07;94328.75;;;20.29;95.74
7768;BME280;3928;42.626;23.382;2023-06-04T01:51:34;94328.31;;;20.21;96.15
7768;BME280;3928;42.626;23.382;2023-06-04T01:54:02;94328.38;;;20.19;95.82
7768;BME280;3928;42.626;23.382;2023-06-04T01:56:30;94329.72;;;20.10;95.21
7768;BME280;3928;42.626;23.382;2023-06-04T01:58:57;94339.91;;;20.15;94.54
7768;BME280;3928;42.626;23.382;2023-06-04T02:01:24;94345.25;;;20.12;94.44
7768;BME280;3928;42.626;23.382;2023-06-04T02:03:50;94334.09;;;20.10;93.96
7768;BME280;3928;42.626;23.382;2023-06-04T02:06:17;94335.69;;;20.12;93.72
7768;BME280;3928;42.626;23.382;2023-06-04T02:08:44;94336.56;;;20.13;93.61
7768;BME280;3928;42.626;23.382;2023-06-04T02:11:11;94310.53;;;19.96;91.90
7768;BME280;3928;42.626;23.382;2023-06-04T02:13:39;94341.53;;;20.00;92.73
7768;BME280;3928;42.626;23.382;2023-06-04T02:16:06;94351.75;;;19.88;93.19
7768;BME280;3928;42.626;23.382;2023-06-04T02:18:33;94351.75;;;19.88;93.65
7768;BME280;3928;42.626;23.382;2023-06-04T02:20:59;94353.19;;;19.77;94.60
7768;BME280;3928;42.626;23.382;2023-06-04T02:23:26;94351.34;;;19.79;94.24
7768;BME280;3928;42.626;23.382;2023-06-04T02:25:53;94356.09;;;19.71;94.61
7768;BME280;3928;42.626;23.382;2023-06-04T02:28:20;94322.53;;;19.48;95.19
7768;BME280;3928;42.626;23.382;2023-06-04T02:30:48;94354.50;;;19.69;95.50
7768;BME280;3928;42.626;23.382;2023-06-04T02:33:15;94365.50;;;19.74;95.59
7768;BME280;3928;42.626;23.382;2023-06-04T02:35:42;94351.81;;;19.70;95.29
7768;BME280;3928;42.626;23.382;2023-06-04T02:38:09;94359.91;;;19.81;94.91
7768;BME280;3928;42.626;23.382;2023-06-04T02:40:36;94367.63;;;19.83;94.82
7768;BME280;3928;42.626;23.382;2023-06-04T02:43:02;94379.56;;;19.87;94.58
7768;BME280;3928;42.626;23.382;2023-06-04T02:45:29;94373.38;;;19.90;94.38
7768;BME280;3928;42.626;23.382;2023-06-04T02:47:57;94369.69;;;19.94;94.35
7768;BME280;3928;42.626;23.382;2023-06-04T02:50:24;94369.94;;;19.89;94.06
7768;BME280;3928;42.626;23.382;2023-06-04T02:52:51;94374.06;;;19.93;94.13
7768;BME280;3928;42.626;23.382;2023-06-04T02:55:18;94377.50;;;19.94;93.84
7768;BME280;3928;42.626;23.382;2023-06-04T02:57:45;94379.94;;;19.97;92.97
7768;BME280;3928;42.626;23.382;2023-06-04T03:00:13;94381.63;;;19.98;93.17
7768;BME280;3928;42.626;23.382;2023-06-04T03:02:41;94375.50;;;19.99;93.12
7768;BME280;3928;42.626;23.382;2023-06-04T03:05:12;94384.22;;;19.98;92.79
7768;BME280;3928;42.626;23.382;2023-06-04T03:07:40;94391.75;;;20.04;93.02
7768;BME280;3928;42.626;23.382;2023-06-04T03:10:08;94384.69;;;20.06;93.24
7768;BME280;3928;42.626;23.382;2023-06-04T03:12:35;94388.22;;;20.05;92.35
7768;BME280;3928;42.626;23.382;2023-06-04T03:15:03;94385.59;;;20.05;92.17
7768;BME280;3928;42.626;23.382;2023-06-04T03:17:30;94389.06;;;20.05;91.85
7768;BME280;3928;42.626;23.382;2023-06-04T03:19:57;94387.38;;;20.04;91.66
7768;BME280;3928;42.626;23.382;2023-06-04T03:22:25;94389.88;;;20.06;91.73
7768;BME280;3928;42.626;23.382;2023-06-04T03:24:53;94388.88;;;20.08;91.50
7768;BME280;3928;42.626;23.382;2023-06-04T03:27:20;94397.47;;;20.10;90.96
7768;BME280;3928;42.626;23.382;2023-06-04T03:29:47;94385.91;;;19.99;90.78
7768;BME280;3928;42.626;23.382;2023-06-04T03:32:14;94391.81;;;20.02;91.38
7768;BME280;3928;42.626;23.382;2023-06-04T03:34:41;94401.72;;;19.96;92.13
7768;BME280;3928;42.626;23.382;2023-06-04T03:37:08;94397.41;;;19.95;92.69
7768;BME280;3928;42.626;23.382;2023-06-04T03:39:36;94400.94;;;19.94;93.09
7768;BME280;3928;42.626;23.382;2023-06-04T03:42:03;94408.69;;;19.95;92.96
7768;BME280;3928;42.626;23.382;2023-06-04T03:44:31;94404.38;;;19.94;93.36
7768;BME280;3928;42.626;23.382;2023-06-04T03:46:57;94411.28;;;19.95;93.37
7768;BME280;3928;42.626;23.382;2023-06-04T03:49:24;94407.53;;;19.83;93.77
7768;BME280;3928;42.626;23.382;2023-06-04T03:51:52;94413.50;;;19.85;94.07
7768;BME280;3928;42.626;23.382;2023-06-04T03:54:19;94418.34;;;19.93;94.12
7768;BME280;3928;42.626;23.382;2023-06-04T03:56:47;94415.72;;;19.93;94.32
7768;BME280;3928;42.626;23.382;2023-06-04T03:59:14;94409.84;;;19.90;94.45
7768;BME280;3928;42.626;23.382;2023-06-04T04:01:41;94414.91;;;19.93;94.79
7768;BME280;3928;42.626;23.382;2023-06-04T04:04:08;94420.94;;;19.93;94.17
7768;BME280;3928;42.626;23.382;2023-06-04T04:06:35;94416.56;;;19.94;94.27
7768;BME280;3928;42.626;23.382;2023-06-04T04:09:02;94418.34;;;19.93;94.38
7768;BME280;3928;42.626;23.382;2023-06-04T04:11:29;94422.09;;;19.88;94.84
7768;BME280;3928;42.626;23.382;2023-06-04T04:13:57;94427.91;;;19.93;95.07
7768;BME280;3928;42.626;23.382;2023-06-04T04:16:24;94422.63;;;19.94;94.84
7768;BME280;3928;42.626;23.382;2023-06-04T04:18:53;94411.53;;;19.91;94.29
7768;BME280;3928;42.626;23.382;2023-06-04T04:21:19;94435.28;;;20.02;94.30
7768;BME280;3928;42.626;23.382;2023-06-04T04:23:49;94419.09;;;19.95;94.39
7768;BME280;3928;42.626;23.382;2023-06-04T04:26:16;94431.56;;;20.06;94.25
7768;BME280;3928;42.626;23.382;2023-06-04T04:28:43;94430.72;;;20.05;93.97
7768;BME280;3928;42.626;23.382;2023-06-04T04:31:11;94435.09;;;20.05;94.10
7768;BME280;3928;42.626;23.382;2023-06-04T04:33:38;94440.78;;;19.96;94.37
7768;BME280;3928;42.626;23.382;2023-06-04T04:36:06;94432.22;;;19.94;93.86
7768;BME280;3928;42.626;23.382;2023-06-04T04:38:38;94228.75;;;18.64;94.32
7768;BME280;3928;42.626;23.382;2023-06-04T04:41:05;94433.13;;;19.93;94.29
7768;BME280;3928;42.626;23.382;2023-06-04T04:43:34;94428.84;;;19.92;95.26
7768;BME280;3928;42.626;23.382;2023-06-04T04:46:01;94434.50;;;19.82;95.10
7768;BME280;3928;42.626;23.382;2023-06-04T04:48:29;94434.19;;;19.89;94.77
7768;BME280;3928;42.626;23.382;2023-06-04T04:50:56;94431.75;;;19.85;95.42
7768;BME280;3928;42.626;23.382;2023-06-04T04:53:23;94435.09;;;19.88;95.69
7768;BME280;3928;42.626;23.382;2023-06-04T04:55:50;94437.56;;;19.91;96.38
7768;BME280;3928;42.626;23.382;2023-06-04T04:58:17;94412.06;;;19.80;95.84
7768;BME280;3928;42.626;23.382;2023-06-04T05:00:44;94375.78;;;19.60;95.34
7768;BME280;3928;42.626;23.382;2023-06-04T05:03:11;94439.63;;;20.01;95.54
7768;BME280;3928;42.626;23.382;2023-06-04T05:05:39;94442.28;;;20.00;94.09
7768;BME280;3928;42.626;23.382;2023-06-04T05:08:08;94437.88;;;19.84;94.42
7768;BME280;3928;42.626;23.382;2023-06-04T05:10:35;94431.31;;;19.77;95.39
7768;BME280;3928;42.626;23.382;2023-06-04T05:13:02;94440.41;;;19.86;95.63
7768;BME280;3928;42.626;23.382;2023-06-04T05:15:30;94439.94;;;19.95;95.78
7768;BME280;3928;42.626;23.382;2023-06-04T05:17:57;94445.34;;;20.08;95.20
7768;BME280;3928;42.626;23.382;2023-06-04T05:20:26;94443.97;;;20.18;95.32
7768;BME280;3928;42.626;23.382;2023-06-04T05:22:54;94438.69;;;20.20;95.02
7768;BME280;3928;42.626;23.382;2023-06-04T05:25:21;94452.84;;;20.31;94.53
7768;BME280;3928;42.626;23.382;2023-06-04T05:27:48;94452.16;;;20.28;93.61
7768;BME280;3928;42.626;23.382;2023-06-04T05:30:16;94452.53;;;20.37;93.62
7768;BME280;3928;42.626;23.382;2023-06-04T05:32:43;94456.06;;;20.36;93.53
7768;BME280;3928;42.626;23.382;2023-06-04T05:35:09;94452.06;;;20.47;93.17
7768;BME280;3928;42.626;23.382;2023-06-04T05:37:37;94441.94;;;20.40;91.54
7768;BME280;3928;42.626;23.382;2023-06-04T05:40:08;94436.81;;;20.39;91.96
7768;BME280;3928;42.626;23.382;2023-06-04T05:42:36;94463.53;;;20.60;91.22
7768;BME280;3928;42.626;23.382;2023-06-04T05:45:03;94463.28;;;20.64;90.73
7768;BME280;3928;42.626;23.382;2023-06-04T05:47:30;94465.66;;;20.69;90.55
7768;BME280;3928;42.626;23.382;2023-06-04T05:49:57;94473.16;;;20.75;90.84
7768;BME280;3928;42.626;23.382;2023-06-04T05:52:24;94463.31;;;20.80;90.98
7768;BME280;3928;42.626;23.382;2023-06-04T05:54:51;94467.59;;;20.81;91.00
7768;BME280;3928;42.626;23.382;2023-06-04T05:57:20;94454.97;;;20.73;90.45
7768;BME280;3928;42.626;23.382;2023-06-04T05:59:46;94475.06;;;20.71;89.68
7768;BME280;3928;42.626;23.382;2023-06-04T06:02:13;94477.47;;;20.59;90.73
7768;BME280;3928;42.626;23.382;2023-06-04T06:04:40;94461.34;;;20.52;89.53
7768;BME280;3928;42.626;23.382;2023-06-04T06:07:07;94487.78;;;20.62;88.98
7768;BME280;3928;42.626;23.382;2023-06-04T06:09:34;94494.34;;;20.69;89.89
7768;BME280;3928;42.626;23.382;2023-06-04T06:12:02;94494.09;;;20.73;88.47
7768;BME280;3928;42.626;23.382;2023-06-04T06:14:30;94491.53;;;20.56;89.79
7768;BME280;3928;42.626;23.382;2023-06-04T06:16:57;94497.28;;;20.63;90.49
7768;BME280;3928;42.626;23.382;2023-06-04T06:19:24;94497.41;;;20.60;90.33
7768;BME280;3928;42.626;23.382;2023-06-04T06:21:51;94492.34;;;20.74;89.73
7768;BME280;3928;42.626;23.382;2023-06-04T06:24:18;94494.38;;;20.85;89.18
7768;BME280;3928;42.626;23.382;2023-06-04T06:26:45;94491.81;;;20.67;88.57
7768;BME280;3928;42.626;23.382;2023-06-04T06:29:12;94494.69;;;20.79;88.42
7768;BME280;3928;42.626;23.382;2023-06-04T06:31:40;94499.25;;;20.75;87.68
7768;BME280;3928;42.626;23.382;2023-06-04T06:34:07;94496.53;;;20.77;87.94
7768;BME280;3928;42.626;23.382;2023-06-04T06:36:34;94495.88;;;20.73;88.71
7768;BME280;3928;42.626;23.382;2023-06-04T06:39:00;94507.66;;;20.80;89.41
7768;BME280;3928;42.626;23.382;2023-06-04T06:41:27;94497.81;;;20.85;89.03
7768;BME280;3928;42.626;23.382;2023-06-04T06:43:56;94499.00;;;20.95;88.00
7768;BME280;3928;42.626;23.382;2023-06-04T06:46:22;94500.28;;;20.88;88.56
7768;BME280;3928;42.626;23.382;2023-06-04T06:48:51;94499.53;;;21.02;88.48
7768;BME280;3928;42.626;23.382;2023-06-04T06:51:18;94506.00;;;21.11;87.25
7768;BME280;3928;42.626;23.382;2023-06-04T06:53:44;94505.84;;;21.14;86.09
7768;BME280;3928;42.626;23.382;2023-06-04T06:56:14;94505.00;;;21.13;85.97
7768;BME280;3928;42.626;23.382;2023-06-04T06:58:41;94505.94;;;21.12;84.71
7768;BME280;3928;42.626;23.382;2023-06-04T07:01:08;94516.28;;;21.14;84.09
7768;BME280;3928;42.626;23.382;2023-06-04T07:03:35;94502.81;;;21.21;83.35
7768;BME280;3928;42.626;23.382;2023-06-04T07:06:04;94505.00;;;21.13;83.23
7768;BME280;3928;42.626;23.382;2023-06-04T07:08:32;94506.28;;;21.22;84.17
7768;BME280;3928;42.626;23.382;2023-06-04T07:10:59;94505.66;;;21.17;82.78
7768;BME280;3928;42.626;23.382;2023-06-04T07:13:27;94514.31;;;21.35;83.16
7768;BME280;3928;42.626;23.382;2023-06-04T07:15:54;94522.28;;;21.47;83.16
7768;BME280;3928;42.626;23.382;2023-06-04T07:18:21;94522.72;;;21.55;83.51
7768;BME280;3928;42.626;23.382;2023-06-04T07:20:47;94504.78;;;21.49;83.43
7768;BME280;3928;42.626;23.382;2023-06-04T07:23:16;94529.88;;;21.68;83.12
7768;BME280;3928;42.626;23.382;2023-06-04T07:25:43;94533.47;;;21.81;83.21
7768;BME280;3928;42.626;23.382;2023-06-04T07:28:09;94526.28;;;21.84;83.30
7768;BME280;3928;42.626;23.382;2023-06-04T07:30:37;94530.25;;;21.92;82.27
7768;BME280;3928;42.626;23.382;2023-06-04T07:33:04;94537.16;;;21.93;82.61
7768;BME280;3928;42.626;23.382;2023-06-04T07:35:31;94533.94;;;22.03;82.40
7768;BME280;3928;42.626;23.382;2023-06-04T07:37:58;94524.41;;;22.02;80.37
7768;BME280;3928;42.626;23.382;2023-06-04T07:40:26;94538.63;;;22.12;80.04
7768;BME280;3928;42.626;23.382;2023-06-04T07:42:53;94539.97;;;22.20;80.24
7768;BME280;3928;42.626;23.382;2023-06-04T07:45:20;94539.66;;;22.10;80.68
7768;BME280;3928;42.626;23.382;2023-06-04T07:47:47;94541.09;;;22.15;80.17
7768;BME280;3928;42.626;23.382;2023-06-04T07:50:14;94548.38;;;22.25;81.50
7768;BME280;3928;42.626;23.382;2023-06-04T07:52:41;94544.31;;;22.35;81.29
7768;BME280;3928;42.626;23.382;2023-06-04T07:55:08;94534.78;;;22.34;80.61
7768;BME280;3928;42.626;23.382;2023-06-04T07:57:37;94554.03;;;22.47;79.59
7768;BME280;3928;42.626;23.382;2023-06-04T08:00:04;94554.72;;;22.51;79.08
7768;BME280;3928;42.626;23.382;2023-06-04T08:02:31;94554.03;;;22.47;79.37
7768;BME280;3928;42.626;23.382;2023-06-04T08:04:58;94551.06;;;22.53;79.01
7768;BME280;3928;42.626;23.382;2023-06-04T08:07:25;94547.63;;;22.53;77.95
7768;BME280;3928;42.626;23.382;2023-06-04T08:09:52;94555.38;;;22.54;77.61
7768;BME280;3928;42.626;23.382;2023-06-04T08:12:19;94546.41;;;22.58;77.98
7768;BME280;3928;42.626;23.382;2023-06-04T08:14:47;94549.53;;;22.35;78.35
7768;BME280;3928;42.626;23.382;2023-06-04T08:17:15;94526.09;;;22.03;80.23
7768;BME280;3928;42.626;23.382;2023-06-04T08:19:42;94550.97;;;22.10;81.35
7768;BME280;3928;42.626;23.382;2023-06-04T08:22:09;94553.81;;;22.36;80.91
7768;BME280;3928;42.626;23.382;2023-06-04T08:24:37;94556.09;;;22.42;79.70
7768;BME280;3928;42.626;23.382;2023-06-04T08:27:04;94550.56;;;22.32;79.31
7768;BME280;3928;42.626;23.382;2023-06-04T08:29:31;94557.34;;;22.21;76.83
7768;BME280;3928;42.626;23.382;2023-06-04T08:31:59;94545.75;;;21.95;76.90
7768;BME280;3928;42.626;23.382;2023-06-04T08:34:26;94554.69;;;21.75;77.38
7768;BME280;3928;42.626;23.382;2023-06-04T08:36:53;94560.94;;;21.72;77.62
7768;BME280;3928;42.626;23.382;2023-06-04T08:39:19;94558.59;;;21.52;77.92
7768;BME280;3928;42.626;23.382;2023-06-04T08:41:49;94553.53;;;21.49;77.83
7768;BME280;3928;42.626;23.382;2023-06-04T08:44:18;94571.25;;;21.59;76.15
7768;BME280;3928;42.626;23.382;2023-06-04T08:46:45;94573.75;;;21.77;75.42
7768;BME280;3928;42.626;23.382;2023-06-04T08:49:15;94573.59;;;21.80;75.49
7768;BME280;3928;42.626;23.382;2023-06-04T08:51:43;94586.81;;;21.77;75.23
7768;BME280;3928;42.626;23.382;2023-06-04T08:54:09;94583.19;;;21.79;73.39
7768;BME280;3928;42.626;23.382;2023-06-04T08:56:36;94585.88;;;21.78;74.01
7768;BME280;3928;42.626;23.382;2023-06-04T08:59:05;94581.69;;;21.44;74.39
7768;BME280;3928;42.626;23.382;2023-06-04T09:01:33;94588.47;;;21.30;75.49
7768;BME280;3928;42.626;23.382;2023-06-04T09:04:04;94580.31;;;21.37;73.84
7768;BME280;3928;42.626;23.382;2023-06-04T09:06:33;94584.22;;;21.12;75.34
7768;BME280;3928;42.626;23.382;2023-06-04T09:09:03;94581.34;;;21.17;76.76
7768;BME280;3928;42.626;23.382;2023-06-04T09:11:35;94583.47;;;21.43;76.11
7768;BME280;3928;42.626;23.382;2023-06-04T09:14:07;94591.13;;;21.62;75.55
7768;BME280;3928;42.626;23.382;2023-06-04T09:16:42;94591.78;;;21.50;74.56
7768;BME280;3928;42.626;23.382;2023-06-04T09:19:09;94596.16;;;21.65;73.63
7768;BME280;3928;42.626;23.382;2023-06-04T09:21:50;94593.66;;;21.79;73.66
7768;BME280;3928;42.626;23.382;2023-06-04T09:24:17;94599.94;;;21.75;73.33
7768;BME280;3928;42.626;23.382;2023-06-04T09:26:44;94588.81;;;22.03;72.18
7768;BME280;3928;42.626;23.382;2023-06-04T09:29:11;94580.31;;;22.15;71.17
7768;BME280;3928;42.626;23.382;2023-06-04T09:31:38;94593.06;;;22.36;70.34
7768;BME280;3928;42.626;23.382;2023-06-04T09:34:05;94591.28;;;22.36;70.10
7768;BME280;3928;42.626;23.382;2023-06-04T09:36:32;94592.13;;;22.37;68.83
7768;BME280;3928;42.626;23.382;2023-06-04T09:39:02;94590.81;;;22.30;69.34
7768;BME280;3928;42.626;23.382;2023-06-04T09:41:30;94584.50;;;22.48;68.97
7768;BME280;3928;42.626;23.382;2023-06-04T09:44:00;94562.44;;;22.38;67.18
7768;BME280;3928;42.626;23.382;2023-06-04T09:46:29;94592.53;;;22.45;68.41
7768;BME280;3928;42.626;23.382;2023-06-04T09:49:00;94585.28;;;22.50;69.66
7768;BME280;3928;42.626;23.382;2023-06-04T09:51:28;94530.88;;;22.41;67.91
7768;BME280;3928;42.626;23.382;2023-06-04T09:53:55;94575.47;;;22.98;67.49
7768;BME280;3928;42.626;23.382;2023-06-04T09:56:24;94591.16;;;23.26;64.82
7768;BME280;3928;42.626;23.382;2023-06-04T09:58:55;94589.19;;;23.44;64.68
7768;BME280;3928;42.626;23.382;2023-06-04T10:01:23;94580.50;;;23.01;66.14
7768;BME280;3928;42.626;23.382;2023-06-04T10:03:53;94579.72;;;23.42;65.68
7768;BME280;3928;42.626;23.382;2023-06-04T10:06:22;94574.78;;;23.92;63.69
7768;BME280;3928;42.626;23.382;2023-06-04T10:08:50;94580.59;;;24.37;59.90
7768;BME280;3928;42.626;23.382;2023-06-04T10:11:21;94573.50;;;24.39;60.67
7768;BME280;3928;42.626;23.382;2023-06-04T10:13:53;94563.88;;;24.78;60.19
7768;BME280;3928;42.626;23.382;2023-06-04T10:16:24;94568.06;;;24.68;59.21
7768;BME280;3928;42.626;23.382;2023-06-04T10:18:52;94565.97;;;24.86;57.75
7768;BME280;3928;42.626;23.382;2023-06-04T10:21:21;94571.25;;;25.24;57.21
7768;BME280;3928;42.626;23.382;2023-06-04T10:23:49;94564.63;;;25.67;54.49
7768;BME280;3928;42.626;23.382;2023-06-04T10:26:17;94567.09;;;25.45;55.15
7768;BME280;3928;42.626;23.382;2023-06-04T10:28:44;94569.34;;;25.00;57.18
7768;BME280;3928;42.626;23.382;2023-06-04T10:31:12;94562.09;;;24.66;57.44
7768;BME280;3928;42.626;23.382;2023-06-04T10:33:39;94573.31;;;24.81;57.30
7768;BME280;3928;42.626;23.382;2023-06-04T10:36:17;94572.16;;;24.85;57.73
7768;BME280;3928;42.626;23.382;2023-06-04T10:38:46;94570.38;;;24.85;56.55
7768;BME280;3928;42.626;23.382;2023-06-04T10:41:14;94571.03;;;24.76;58.14
7768;BME280;3928;42.626;23.382;2023-06-04T10:43:42;94562.94;;;24.66;59.15
7768;BME280;3928;42.626;23.382;2023-06-04T10:46:14;94572.38;;;24.56;59.73
7768;BME280;3928;42.626;23.382;2023-06-04T10:48:48;94545.91;;;24.46;60.48
7768;BME280;3928;42.626;23.382;2023-06-04T10:51:15;94563.22;;;24.62;61.43
7768;BME280;3928;42.626;23.382;2023-06-04T10:53:42;94567.56;;;24.88;61.87
7768;BME280;3928;42.626;23.382;2023-06-04T10:56:09;94565.59;;;25.04;59.89
7768;BME280;3928;42.626;23.382;2023-06-04T10:58:36;94572.31;;;25.08;58.70
7768;BME280;3928;42.626;23.382;2023-06-04T11:01:03;94564.38;;;25.47;57.37
7768;BME280;3928;42.626;23.382;2023-06-04T11:03:37;94567.19;;;25.56;58.43
7768;BME280;3928;42.626;23.382;2023-06-04T11:06:14;94564.25;;;25.74;57.87
7768;BME280;3928;42.626;23.382;2023-06-04T11:08:42;94559.88;;;25.85;58.10
7768;BME280;3928;42.626;23.382;2023-06-04T11:11:13;94559.94;;;25.97;57.04
7768;BME280;3928;42.626;23.382;2023-06-04T11:13:41;94559.22;;;25.94;54.84
7768;BME280;3928;42.626;23.382;2023-06-04T11:16:17;94558.25;;;25.72;56.63
7768;BME280;3928;42.626;23.382;2023-06-04T11:18:55;94552.44;;;25.79;57.86
7768;BME280;3928;42.626;23.382;2023-06-04T11:21:23;94566.13;;;25.72;56.23
7768;BME280;3928;42.626;23.382;2023-06-04T11:23:55;94549.16;;;25.39;56.66
7768;BME280;3928;42.626;23.382;2023-06-04T11:26:22;94565.50;;;25.55;56.98
7768;BME280;3928;42.626;23.382;2023-06-04T11:28:52;94564.91;;;25.39;57.90
7768;BME280;3928;42.626;23.382;2023-06-04T11:31:19;94563.25;;;25.38;56.78
7768;BME280;3928;42.626;23.382;2023-06-04T11:33:47;94566.00;;;25.24;56.73
7768;BME280;3928;42.626;23.382;2023-06-04T11:36:23;94553.63;;;25.13;57.33
7768;BME280;3928;42.626;23.382;2023-06-04T11:38:55;94558.00;;;24.87;57.09
7768;BME280;3928;42.626;23.382;2023-06-04T11:41:23;94561.56;;;24.73;57.63
7768;BME280;3928;42.626;23.382;2023-06-04T11:43:50;94567.84;;;24.71;58.96
7768;BME280;3928;42.626;23.382;2023-06-04T11:46:17;94562.72;;;24.82;58.40
7768;BME280;3928;42.626;23.382;2023-06-04T11:48:44;94566.91;;;24.97;59.11
7768;BME280;3928;42.626;23.382;2023-06-04T11:51:12;94561.19;;;25.05;60.93
7768;BME280;3928;42.626;23.382;2023-06-04T11:53:40;94556.34;;;24.99;58.67
7768;BME280;3928;42.626;23.382;2023-06-04T11:56:07;94562.72;;;24.82;58.43
7768;BME280;3928;42.626;23.382;2023-06-04T11:58:36;94552.31;;;24.81;59.14
7768;BME280;3928;42.626;23.382;2023-06-04T12:01:04;94551.59;;;24.78;62.02
7768;BME280;3928;42.626;23.382;2023-06-04T12:03:35;94556.53;;;24.83;58.76
7768;BME280;3928;42.626;23.382;2023-06-04T12:06:14;94572.25;;;24.18;59.71
7768;BME280;3928;42.626;23.382;2023-06-04T12:08:47;94569.09;;;24.40;61.36
7768;BME280;3928;42.626;23.382;2023-06-04T12:11:35;94574.41;;;24.38;59.18
7768;BME280;3928;42.626;23.382;2023-06-04T12:14:04;94567.44;;;24.52;57.84
7768;BME280;3928;42.626;23.382;2023-06-04T12:16:31;94570.25;;;24.61;58.97
7768;BME280;3928;42.626;23.382;2023-06-04T12:19:06;94567.75;;;24.60;57.85
7768;BME280;3928;42.626;23.382;2023-06-04T12:21:33;94576.78;;;24.68;58.78
7768;BME280;3928;42.626;23.382;2023-06-04T12:24:08;94577.97;;;24.37;60.47
7768;BME280;3928;42.626;23.382;2023-06-04T12:26:37;94582.09;;;23.87;61.19
7768;BME280;3928;42.626;23.382;2023-06-04T12:29:10;94577.25;;;23.81;62.32
7768;BME280;3928;42.626;23.382;2023-06-04T12:31:38;94584.34;;;23.79;62.98
7768;BME280;3928;42.626;23.382;2023-06-04T12:34:05;94575.91;;;23.61;64.58
7768;BME280;3928;42.626;23.382;2023-06-04T12:36:31;94588.78;;;23.50;65.01
7768;BME280;3928;42.626;23.382;2023-06-04T12:39:02;94575.69;;;23.65;65.84
7768;BME280;3928;42.626;23.382;2023-06-04T12:41:32;94574.47;;;23.70;64.32
7768;BME280;3928;42.626;23.382;2023-06-04T12:44:00;94570.91;;;23.71;65.27
7768;BME280;3928;42.626;23.382;2023-06-04T12:46:27;94564.03;;;23.83;64.01
7768;BME280;3928;42.626;23.382;2023-06-04T12:48:54;94565.47;;;23.74;63.47
7768;BME280;3928;42.626;23.382;2023-06-04T12:51:21;94572.44;;;23.61;64.12
7768;BME280;3928;42.626;23.382;2023-06-04T12:53:48;94581.97;;;23.62;63.96
7768;BME280;3928;42.626;23.382;2023-06-04T12:56:16;94571.50;;;23.62;64.32
7768;BME280;3928;42.626;23.382;2023-06-04T12:58:44;94577.53;;;23.77;65.14
7768;BME280;3928;42.626;23.382;2023-06-04T13:01:11;94583.06;;;23.72;65.83
7768;BME280;3928;42.626;23.382;2023-06-04T13:03:39;94567.16;;;23.75;65.74
7768;BME280;3928;42.626;23.382;2023-06-04T13:06:06;94578.63;;;23.60;65.96
7768;BME280;3928;42.626;23.382;2023-06-04T13:08:33;94578.22;;;23.66;66.14
7768;BME280;3928;42.626;23.382;2023-06-04T13:11:00;94582.19;;;23.59;63.75
7768;BME280;3928;42.626;23.382;2023-06-04T13:13:28;94580.69;;;23.26;63.68